Time;durP1;ratioP1;P1;durP2;ratioP2;P2;SDS_P1;SDS_P2;PMS_P1;PMS_P2;Temp;Humidity;BMP_temperature;BMP_pressure;BME280_temperature;BME280_humidity;BME280_pressure;Samples;Min_cycle;Max_cycle;Signal;HPM_P1;HPM_P2
2021/12/17 00:04:31;;;;;;;12.27;7.55;;;6.80;99.90;;;;;;4979573;28;20652;-85
2021/12/17 00:06:57;;;;;;;12.52;6.82;;;6.80;99.90;;;;;;4983231;28;20031;-83
2021/12/17 00:09:24;;;;;;;11.63;7.30;;;6.80;99.90;;;;;;4980186;28;20031;-85
2021/12/17 00:11:50;;;;;;;10.85;6.97;;;6.80;99.90;;;;;;4975923;28;20035;-84
2021/12/17 00:14:25;;;;;;;10.27;6.80;;;6.80;99.90;;;;;;4978489;28;20082;-84
2021/12/17 00:17:03;;;;;;;10.00;6.80;;;6.80;99.90;;;;;;4997703;28;20035;-84
2021/12/17 00:48:59;;;;;;;11.27;7.28;;;6.80;99.90;;;;;;4968663;28;20041;-85
2021/12/17 00:54:21;;;;;;;13.00;7.63;;;6.80;99.90;;;;;;4975344;28;20022;-84
2021/12/17 00:56:50;;;;;;;13.63;8.48;;;6.80;99.90;;;;;;4988788;28;20031;-86
2021/12/17 00:59:16;;;;;;;12.40;7.30;;;6.70;99.90;;;;;;4991386;28;20046;-83
2021/12/17 01:01:42;;;;;;;12.13;7.68;;;6.80;99.90;;;;;;4988172;28;20106;-86
2021/12/17 01:04:09;;;;;;;11.48;7.00;;;6.70;99.90;;;;;;4976760;28;20034;-84
2021/12/17 01:06:37;;;;;;;10.00;6.80;;;6.70;99.90;;;;;;4977570;28;20035;-84
2021/12/17 01:09:04;;;;;;;12.10;6.97;;;6.80;99.90;;;;;;4977828;28;20023;-85
2021/12/17 01:11:30;;;;;;;13.20;7.28;;;6.70;99.90;;;;;;4977388;28;20019;-84
2021/12/17 01:14:09;;;;;;;10.65;6.57;;;6.70;99.90;;;;;;4976833;28;20051;-86
2021/12/17 01:16:54;;;;;;;11.13;7.00;;;6.70;99.90;;;;;;4978898;28;20041;-84
2021/12/17 01:25:37;;;;;;;13.40;7.28;;;6.60;99.90;;;;;;4972001;28;20027;-83
2021/12/17 01:42:37;;;;;;;14.05;7.90;;;6.50;99.90;;;;;;4981708;28;20097;-87
2021/12/17 01:45:04;;;;;;;14.05;8.70;;;6.50;99.90;;;;;;4980211;28;20022;-89
2021/12/17 01:47:30;;;;;;;15.38;8.35;;;6.50;99.90;;;;;;4982658;28;20019;-90
2021/12/17 02:00:54;;;;;;;14.45;8.60;;;6.40;99.90;;;;;;4996602;28;20030;-85
2021/12/17 02:03:20;;;;;;;14.18;9.05;;;6.30;99.90;;;;;;4994038;28;20038;-86
2021/12/17 02:05:46;;;;;;;16.02;8.98;;;6.30;99.90;;;;;;4995592;28;20027;-85
2021/12/17 02:08:13;;;;;;;14.98;9.52;;;6.30;99.90;;;;;;4987475;28;20027;-84
2021/12/17 02:11:35;;;;;;;14.10;8.32;;;6.30;99.90;;;;;;4990003;28;20026;-85
2021/12/17 02:20:22;;;;;;;15.00;8.48;;;6.30;99.90;;;;;;4948867;29;19926;-85
2021/12/17 02:32:48;;;;;;;13.85;8.57;;;6.30;99.90;;;;;;4998733;28;20025;-86
2021/12/17 02:35:33;;;;;;;14.65;8.52;;;6.30;99.90;;;;;;4995682;28;20027;-87
2021/12/17 02:38:01;;;;;;;13.18;7.95;;;6.30;99.90;;;;;;4995304;28;20035;-87
2021/12/17 02:46:29;;;;;;;16.48;9.10;;;6.30;99.90;;;;;;5000772;28;20094;-86
2021/12/17 02:48:56;;;;;;;13.95;8.30;;;6.20;99.90;;;;;;5000602;28;20029;-86
2021/12/17 02:51:23;;;;;;;16.23;8.30;;;6.20;99.90;;;;;;5000512;28;20079;-86
2021/12/17 02:53:50;;;;;;;13.70;8.20;;;6.20;99.90;;;;;;5000940;28;20030;-86
2021/12/17 02:56:15;;;;;;;15.68;8.80;;;6.20;99.90;;;;;;5000625;28;20019;-86
2021/12/17 02:58:42;;;;;;;15.20;8.50;;;6.20;99.90;;;;;;5000451;28;20014;-86
2021/12/17 03:01:12;;;;;;;17.27;8.52;;;6.20;99.90;;;;;;5001010;28;20014;-87
2021/12/17 03:03:39;;;;;;;17.73;7.57;;;6.20;99.90;;;;;;5000471;28;20078;-86
2021/12/17 03:06:06;;;;;;;15.88;8.75;;;6.20;99.90;;;;;;5000509;28;20011;-86
2021/12/17 03:08:32;;;;;;;13.90;8.45;;;6.20;99.90;;;;;;5000098;28;20078;-86
2021/12/17 03:10:59;;;;;;;15.82;7.82;;;6.20;99.90;;;;;;5000549;28;20014;-84
2021/12/17 03:13:27;;;;;;;13.60;7.47;;;6.20;99.90;;;;;;5016388;28;20023;-85
2021/12/17 03:23:42;;;;;;;;;;;6.20;99.90;;;;;;5000362;28;20053;-86
2021/12/17 03:26:20;;;;;;;13.02;7.55;;;6.20;99.90;;;;;;4984577;28;19914;-85
2021/12/17 03:28:49;;;;;;;10.98;7.20;;;6.20;99.90;;;;;;4993676;28;20031;-87
2021/12/17 03:31:17;;;;;;;11.73;7.18;;;6.20;99.90;;;;;;4977909;28;20026;-88
2021/12/17 03:33:46;;;;;;;11.52;6.97;;;6.20;99.90;;;;;;4991957;28;20030;-87
2021/12/17 03:36:15;;;;;;;13.20;7.45;;;6.20;99.90;;;;;;4991436;28;20035;-87
2021/12/17 03:38:47;;;;;;;12.82;7.05;;;6.20;99.90;;;;;;4991675;28;20055;-88
2021/12/17 03:41:23;;;;;;;13.00;7.63;;;6.20;99.90;;;;;;4996115;28;20130;-87
2021/12/17 03:43:58;;;;;;;11.65;7.40;;;6.20;99.90;;;;;;4993294;28;20072;-87
2021/12/17 03:46:44;;;;;;;13.52;7.18;;;6.20;99.90;;;;;;5009417;28;20506;-89
2021/12/17 03:49:10;;;;;;;13.95;7.88;;;6.20;99.90;;;;;;4988886;28;20125;-87
2021/12/17 03:51:47;;;;;;;14.68;8.15;;;6.20;99.90;;;;;;4987417;28;20018;-89
2021/12/17 03:54:13;;;;;;;13.35;7.85;;;6.20;99.90;;;;;;4993054;28;20035;-89
2021/12/17 03:56:39;;;;;;;13.85;7.45;;;6.20;99.90;;;;;;4993082;28;20038;-88
2021/12/17 03:59:10;;;;;;;12.80;7.40;;;6.10;99.90;;;;;;4988292;28;20395;-88
2021/12/17 04:01:38;;;;;;;12.73;7.63;;;6.20;99.90;;;;;;4994382;28;20038;-87
2021/12/17 04:04:05;;;;;;;14.02;8.32;;;6.10;99.90;;;;;;4991762;28;20043;-88
2021/12/17 04:06:33;;;;;;;13.70;7.18;;;6.10;99.90;;;;;;4993499;28;20010;-89
2021/12/17 04:09:04;;;;;;;13.55;7.85;;;6.10;99.90;;;;;;4995687;28;20086;-88
2021/12/17 04:11:52;;;;;;;16.10;8.73;;;6.10;99.90;;;;;;4965987;28;20035;-90
2021/12/17 04:15:03;;;;;;;14.50;8.13;;;6.00;99.90;;;;;;4982398;28;20062;-88
2021/12/17 04:17:24;;;;;;;13.43;7.95;;;6.00;99.90;;;;;;4980075;28;20514;-89
2021/12/17 04:19:50;;;;;;;15.18;8.48;;;6.00;99.90;;;;;;4982621;28;20030;-87
2021/12/17 04:22:17;;;;;;;14.68;8.25;;;6.00;99.90;;;;;;4983891;28;20015;-88
2021/12/17 04:24:43;;;;;;;14.10;7.90;;;6.00;99.90;;;;;;4982528;28;20034;-88
2021/12/17 04:27:09;;;;;;;15.77;8.50;;;6.00;99.90;;;;;;4984876;28;20101;-89
2021/12/17 04:29:42;;;;;;;15.75;8.63;;;6.00;99.90;;;;;;4990259;28;20115;-89
2021/12/17 04:32:09;;;;;;;14.20;8.13;;;6.00;99.90;;;;;;5000168;28;20067;-90
2021/12/17 04:34:35;;;;;;;14.48;8.25;;;6.00;99.90;;;;;;4984773;28;20010;-90
2021/12/17 04:37:03;;;;;;;15.68;8.57;;;6.00;99.90;;;;;;4983945;28;20054;-91
2021/12/17 04:39:43;;;;;;;14.38;8.57;;;6.00;99.90;;;;;;4986345;28;20037;-90
2021/12/17 04:43:15;;;;;;;15.75;8.30;;;5.90;99.90;;;;;;4992170;28;20478;-90
2021/12/17 04:45:07;;;;;;;12.45;7.45;;;5.90;99.90;;;;;;4975960;28;20047;-89
2021/12/17 04:58:44;;;;;;;12.43;7.32;;;5.90;99.90;;;;;;4987045;28;20071;-90
2021/12/17 05:01:14;;;;;;;12.13;6.97;;;5.90;99.90;;;;;;4984886;28;20054;-90
2021/12/17 05:03:43;;;;;;;12.55;7.78;;;5.90;99.90;;;;;;4996398;28;20043;-88
2021/12/17 05:06:10;;;;;;;15.30;8.13;;;5.90;99.90;;;;;;4999411;28;20038;-89
2021/12/17 05:08:55;;;;;;;13.07;7.55;;;5.90;99.90;;;;;;5001492;28;20041;-90
2021/12/17 05:11:38;;;;;;;11.68;6.93;;;5.90;99.90;;;;;;4991887;28;20435;-90
2021/12/17 05:22:09;;;;;;;11.45;6.88;;;5.90;99.90;;;;;;4996153;28;20069;-91
2021/12/17 05:24:36;;;;;;;12.60;7.13;;;6.00;99.90;;;;;;5005516;28;20041;-89
2021/12/17 05:27:04;;;;;;;10.82;6.70;;;6.00;99.90;;;;;;4986356;28;20058;-91
2021/12/17 05:29:34;;;;;;;13.27;7.55;;;6.00;99.90;;;;;;5002450;28;20038;-89
2021/12/17 05:32:00;;;;;;;11.50;6.65;;;6.00;99.90;;;;;;4997090;28;20081;-90
2021/12/17 05:34:26;;;;;;;13.40;7.00;;;6.00;99.90;;;;;;4969603;28;20030;-90
2021/12/17 05:36:57;;;;;;;10.93;6.20;;;6.10;99.90;;;;;;4986042;28;20041;-92
2021/12/17 05:39:27;;;;;;;12.65;6.70;;;6.00;99.90;;;;;;4987483;28;20030;-88
2021/12/17 05:42:00;;;;;;;10.15;6.07;;;6.00;99.90;;;;;;4988883;28;20473;-88
2021/12/17 05:44:51;;;;;;;;;;;6.00;99.90;;;;;;4993912;28;20450;-90
2021/12/17 05:47:17;;;;;;;10.95;6.38;;;6.00;99.90;;;;;;4977234;28;19910;-90
2021/12/17 05:49:43;;;;;;;13.15;6.80;;;6.00;99.90;;;;;;4980530;28;20116;-90
2021/12/17 05:52:09;;;;;;;11.05;6.20;;;6.10;99.90;;;;;;4998256;28;20014;-91
2021/12/17 05:54:38;;;;;;;12.27;6.35;;;6.10;99.90;;;;;;4980709;28;20054;-89
2021/12/17 05:57:06;;;;;;;11.18;6.43;;;6.20;99.90;;;;;;4999324;28;20144;-91
2021/12/17 05:59:35;;;;;;;11.20;6.95;;;6.20;99.90;;;;;;4996689;28;20031;-91
2021/12/17 06:02:09;;;;;;;10.80;7.03;;;6.20;99.90;;;;;;4999279;28;20030;-89
2021/12/17 06:04:37;;;;;;;12.20;6.77;;;6.20;99.90;;;;;;5003534;28;20027;-89
2021/12/17 06:07:05;;;;;;;12.15;7.13;;;6.20;99.90;;;;;;5003617;28;20011;-92
2021/12/17 06:09:34;;;;;;;12.40;7.18;;;6.20;99.90;;;;;;5019907;28;20050;-91
2021/12/17 06:12:04;;;;;;;12.00;7.50;;;6.10;99.90;;;;;;5002917;28;20026;-87
2021/12/17 06:14:30;;;;;;;11.20;7.28;;;6.10;99.90;;;;;;5003046;28;20080;-87
2021/12/17 06:16:57;;;;;;;13.10;7.40;;;6.10;99.90;;;;;;5002412;28;20027;-87
2021/12/17 06:19:30;;;;;;;15.13;8.63;;;6.10;99.90;;;;;;4985466;28;20015;-88
2021/12/17 06:21:58;;;;;;;12.50;7.78;;;6.10;99.90;;;;;;5000115;28;20062;-88
2021/12/17 06:24:25;;;;;;;11.25;6.95;;;6.10;99.90;;;;;;5000398;28;20083;-88
2021/12/17 06:26:51;;;;;;;13.32;7.88;;;6.10;99.90;;;;;;5000861;28;20023;-86
2021/12/17 06:29:18;;;;;;;13.32;7.63;;;6.10;99.90;;;;;;5000735;28;20027;-87
2021/12/17 06:31:48;;;;;;;13.18;7.68;;;6.20;99.90;;;;;;4996981;28;20015;-88
2021/12/17 06:34:15;;;;;;;14.45;7.85;;;6.20;99.90;;;;;;5001381;28;20034;-88
2021/12/17 06:36:44;;;;;;;11.77;7.57;;;6.20;99.90;;;;;;5000311;28;20073;-87
2021/12/17 06:39:10;;;;;;;12.95;7.78;;;6.30;99.90;;;;;;4999913;28;20022;-88
2021/12/17 06:41:38;;;;;;;16.35;9.00;;;6.30;99.90;;;;;;4978650;28;20027;-90
2021/12/17 06:44:07;;;;;;;15.38;7.78;;;6.30;99.90;;;;;;4992227;28;20058;-90
2021/12/17 06:46:53;;;;;;;13.98;8.07;;;6.30;99.90;;;;;;4994715;28;20027;-90
2021/12/17 06:49:29;;;;;;;13.07;8.10;;;6.40;99.90;;;;;;4992526;28;20025;-90
2021/12/17 07:10:40;;;;;;;17.98;8.80;;;6.40;99.90;;;;;;5015303;28;20038;-85
2021/12/17 07:39:42;;;;;;;17.02;8.35;;;6.50;99.90;;;;;;4994603;28;19937;-85
2021/12/17 07:42:19;;;;;;;14.77;7.70;;;6.60;99.90;;;;;;4976449;28;20046;-85
2021/12/17 07:45:11;;;;;;;14.02;7.53;;;6.60;99.90;;;;;;4987904;28;20394;-85
2021/12/17 07:47:57;;;;;;;16.48;7.63;;;6.70;99.90;;;;;;4990577;28;20110;-86
2021/12/17 07:50:50;;;;;;;16.40;7.70;;;6.70;99.90;;;;;;4987721;28;20038;-87
2021/12/17 07:53:53;;;;;;;17.05;7.25;;;6.70;99.90;;;;;;4963748;28;20099;-84
2021/12/17 07:56:25;;;;;;;15.35;6.68;;;6.80;99.90;;;;;;4985108;28;20434;-82
2021/12/17 07:58:57;;;;;;;12.15;6.32;;;6.90;99.90;;;;;;4977574;28;20181;-83
2021/12/17 08:01:23;;;;;;;14.20;6.88;;;6.90;99.90;;;;;;4985302;28;20026;-84
2021/12/17 08:03:50;;;;;;;13.82;7.05;;;7.00;99.90;;;;;;4986313;28;20067;-85
2021/12/17 08:06:37;;;;;;;12.93;6.97;;;7.00;99.90;;;;;;4983940;28;20790;-83
2021/12/17 08:09:13;;;;;;;16.80;6.93;;;7.10;99.90;;;;;;4969832;28;20061;-84
2021/12/17 08:11:41;;;;;;;17.80;6.75;;;7.00;99.90;;;;;;4985955;28;20019;-83
2021/12/17 08:14:13;;;;;;;17.55;6.43;;;7.00;99.90;;;;;;4981930;28;20026;-84
2021/12/17 08:16:58;;;;;;;13.77;6.88;;;7.10;99.90;;;;;;5007834;28;20031;-86
2021/12/17 08:25:16;;;;;;;14.52;6.00;;;7.10;99.90;;;;;;4991133;28;20027;-84
2021/12/17 08:28:03;;;;;;;12.38;6.90;;;7.10;99.90;;;;;;4970091;28;20027;-84
2021/12/17 08:30:38;;;;;;;13.35;6.28;;;7.20;99.90;;;;;;4986822;28;20054;-82
2021/12/17 08:33:19;;;;;;;12.57;5.75;;;7.20;99.90;;;;;;4989978;28;20042;-85
2021/12/17 08:35:47;;;;;;;18.35;5.93;;;7.30;99.90;;;;;;4998474;28;20030;-82
2021/12/17 08:38:20;;;;;;;13.77;6.18;;;7.30;99.90;;;;;;5003669;28;20522;-85
2021/12/17 08:40:46;;;;;;;10.27;5.88;;;7.20;99.90;;;;;;4981305;28;20098;-85
2021/12/17 08:43:13;;;;;;;14.45;7.00;;;7.20;99.90;;;;;;4983001;28;20069;-83
2021/12/17 08:45:46;;;;;;;15.35;6.72;;;7.30;99.90;;;;;;4993969;28;20095;-83
2021/12/17 08:48:47;;;;;;;15.65;6.43;;;7.20;99.90;;;;;;4997901;28;20030;-82
2021/12/17 08:51:40;;;;;;;16.80;6.18;;;7.20;99.90;;;;;;4962756;29;20095;-84
2021/12/17 08:54:07;;;;;;;19.70;7.35;;;7.20;99.90;;;;;;4957651;28;20042;-83
2021/12/17 08:56:42;;;;;;;13.52;6.75;;;7.20;99.90;;;;;;5000328;28;20027;-84
2021/12/17 08:59:09;;;;;;;12.73;6.50;;;7.20;99.90;;;;;;4995417;28;20030;-82
2021/12/17 09:01:53;;;;;;;;;;;7.20;99.90;;;;;;4985940;28;20065;-82
2021/12/17 09:04:19;;;;;;;14.60;6.93;;;7.20;99.90;;;;;;5002726;28;19961;-83
2021/12/17 09:06:49;;;;;;;14.10;6.55;;;7.20;99.90;;;;;;4988943;28;20043;-83
2021/12/17 09:09:19;;;;;;;23.77;10.82;;;7.10;99.90;;;;;;4991004;28;20098;-82
2021/12/17 09:11:46;;;;;;;14.50;7.18;;;7.10;99.90;;;;;;4984182;28;20035;-82
2021/12/17 09:14:24;;;;;;;15.52;6.68;;;7.10;99.90;;;;;;4988692;28;20026;-84
2021/12/17 09:16:56;;;;;;;15.07;6.78;;;7.20;99.90;;;;;;4966318;28;20146;-83
2021/12/17 09:19:27;;;;;;;12.68;6.63;;;7.30;99.90;;;;;;4980859;28;20023;-84
2021/12/17 09:21:58;;;;;;;14.32;6.55;;;7.30;99.90;;;;;;4986089;28;20026;-87
2021/12/17 09:24:31;;;;;;;25.20;7.78;;;7.20;99.90;;;;;;4999525;28;20075;-82
2021/12/17 09:27:28;;;;;;;18.70;7.10;;;7.20;99.90;;;;;;4987246;28;20035;-84
2021/12/17 09:30:10;;;;;;;22.65;7.22;;;7.30;99.90;;;;;;4998970;28;20038;-84
2021/12/17 09:32:38;;;;;;;12.02;6.88;;;7.40;99.90;;;;;;4978977;28;20101;-83
2021/12/17 09:35:04;;;;;;;15.88;7.43;;;7.30;99.90;;;;;;4981262;28;20511;-83
2021/12/17 09:37:30;;;;;;;16.40;6.63;;;7.30;99.90;;;;;;4979733;28;20031;-83
2021/12/17 09:39:55;;;;;;;18.42;7.72;;;7.30;99.90;;;;;;4970451;28;20038;-80
2021/12/17 09:42:21;;;;;;;16.38;7.50;;;7.30;99.90;;;;;;4999549;28;20010;-83
2021/12/17 09:44:47;;;;;;;13.05;7.50;;;7.30;99.90;;;;;;5016979;28;20017;-81
2021/12/17 09:47:13;;;;;;;19.88;7.80;;;7.30;99.90;;;;;;4991004;28;20035;-82
2021/12/17 09:49:39;;;;;;;20.75;6.78;;;7.20;99.90;;;;;;5000382;28;20062;-81
2021/12/17 09:52:05;;;;;;;14.57;6.63;;;7.30;99.90;;;;;;4990834;28;20066;-81
2021/12/17 09:54:31;;;;;;;20.10;6.93;;;7.20;99.90;;;;;;5004777;28;20034;-83
2021/12/17 09:56:57;;;;;;;12.85;6.80;;;7.30;99.90;;;;;;4992775;28;20050;-81
2021/12/17 09:59:22;;;;;;;15.90;7.22;;;7.20;99.90;;;;;;4999734;28;20023;-79
2021/12/17 10:01:48;;;;;;;14.43;7.00;;;7.30;99.90;;;;;;4997517;28;20035;-83
2021/12/17 10:04:27;;;;;;;13.00;6.72;;;7.30;99.90;;;;;;4990006;28;20030;-83
2021/12/17 10:07:13;;;;;;;18.00;6.80;;;7.30;99.90;;;;;;4979353;28;20035;-82
2021/12/17 10:09:55;;;;;;;12.20;6.72;;;7.40;99.90;;;;;;4976854;28;20474;-84
2021/12/17 10:12:23;;;;;;;17.00;7.32;;;7.30;99.90;;;;;;4999545;28;20077;-82
2021/12/17 10:15:07;;;;;;;17.60;6.97;;;7.40;99.90;;;;;;4995733;28;20030;-81
2021/12/17 10:17:48;;;;;;;18.63;7.32;;;7.40;99.90;;;;;;5001867;28;20082;-80
2021/12/17 10:20:14;;;;;;;17.48;7.13;;;7.40;99.90;;;;;;4994154;28;20015;-83
2021/12/17 10:22:44;;;;;;;16.15;8.18;;;7.30;99.90;;;;;;5006338;28;20147;-83
2021/12/17 10:25:11;;;;;;;14.48;7.93;;;7.40;99.90;;;;;;5007334;28;20352;-84
2021/12/17 10:27:42;;;;;;;15.52;7.32;;;7.40;99.90;;;;;;5000725;28;20022;-80
2021/12/17 10:30:16;;;;;;;15.65;6.97;;;7.60;99.90;;;;;;5006184;28;20149;-81
2021/12/17 10:32:44;;;;;;;12.43;6.75;;;7.70;99.90;;;;;;5003768;28;20049;-83
2021/12/17 10:35:14;;;;;;;16.25;6.72;;;7.80;99.90;;;;;;5009922;28;20014;-83
2021/12/17 10:37:39;;;;;;;13.48;6.30;;;7.90;99.90;;;;;;5005643;28;20037;-83
2021/12/17 10:40:25;;;;;;;16.25;7.53;;;8.10;99.90;;;;;;4991467;28;20087;-83
2021/12/17 10:43:08;;;;;;;15.40;6.70;;;8.10;99.90;;;;;;5001369;28;20054;-80
2021/12/17 10:45:44;;;;;;;14.90;7.47;;;8.40;99.90;;;;;;4993444;28;20022;-82
2021/12/17 10:48:32;;;;;;;18.25;7.57;;;8.70;99.90;;;;;;5001520;28;20029;-81
2021/12/17 10:51:14;;;;;;;14.38;6.88;;;9.10;99.90;;;;;;5001603;28;20086;-84
2021/12/17 10:53:55;;;;;;;13.43;6.75;;;9.90;99.90;;;;;;4997473;28;20062;-83
2021/12/17 10:56:27;;;;;;;16.48;6.63;;;9.70;99.90;;;;;;4966831;28;20307;-84
2021/12/17 10:58:53;;;;;;;15.27;7.43;;;9.50;99.90;;;;;;4969899;28;20037;-83
2021/12/17 11:01:28;;;;;;;17.88;7.18;;;9.50;99.90;;;;;;4976075;28;20455;-81
2021/12/17 11:04:07;;;;;;;17.80;7.03;;;9.60;99.90;;;;;;4978504;28;20178;-82
2021/12/17 11:06:58;;;;;;;19.13;7.28;;;9.60;99.90;;;;;;4996972;28;20031;-83
2021/12/17 11:09:53;;;;;;;14.93;6.57;;;9.40;99.90;;;;;;4991276;28;20033;-84
2021/12/17 11:12:38;;;;;;;21.23;7.32;;;9.50;99.90;;;;;;4978949;28;20033;-84
2021/12/17 11:15:27;;;;;;;16.00;6.28;;;10.00;99.90;;;;;;4991918;28;20132;-86
2021/12/17 11:17:58;;;;;;;17.08;5.95;;;10.70;99.90;;;;;;4998129;28;20113;-84
2021/12/17 11:20:26;;;;;;;15.18;6.63;;;11.50;99.90;;;;;;5001664;28;20027;-86
2021/12/17 11:22:54;;;;;;;16.83;6.72;;;11.80;99.90;;;;;;4998598;28;20026;-85
2021/12/17 11:25:21;;;;;;;14.32;6.18;;;11.80;99.90;;;;;;4993300;28;20018;-86
2021/12/17 11:27:47;;;;;;;16.42;6.00;;;12.20;99.90;;;;;;5003413;28;20037;-86
2021/12/17 11:30:19;;;;;;;12.93;5.97;;;12.70;99.90;;;;;;4999623;28;20026;-85
2021/12/17 11:32:51;;;;;;;11.38;5.97;;;13.00;99.90;;;;;;4969862;28;20499;-86
2021/12/17 11:35:20;;;;;;;15.57;6.45;;;13.40;99.50;;;;;;4993844;28;20065;-85
2021/12/17 11:37:49;;;;;;;16.05;6.35;;;13.80;98.40;;;;;;4990153;28;20126;-87
2021/12/17 11:40:27;;;;;;;10.18;5.90;;;12.90;99.00;;;;;;4992004;28;20081;-86
2021/12/17 11:43:10;;;;;;;12.48;6.82;;;11.70;99.90;;;;;;4993896;28;20164;-88
2021/12/17 11:45:36;;;;;;;16.40;6.72;;;11.20;99.90;;;;;;4970857;28;20022;-86
2021/12/17 11:48:13;;;;;;;16.67;6.68;;;10.60;99.90;;;;;;4988356;28;20154;-84
2021/12/17 11:50:39;;;;;;;15.63;6.97;;;10.30;99.90;;;;;;4979824;28;20015;-83
2021/12/17 11:53:21;;;;;;;15.63;7.18;;;10.00;99.90;;;;;;4986397;28;20042;-84
2021/12/17 11:55:58;;;;;;;11.15;6.43;;;9.60;99.90;;;;;;4995866;28;20031;-84
2021/12/17 11:58:48;;;;;;;13.88;6.70;;;9.30;99.90;;;;;;4994220;28;20059;-85
2021/12/17 12:01:55;;;;;;;18.20;6.88;;;9.10;99.90;;;;;;4974060;28;20066;-85
2021/12/17 12:04:39;;;;;;;14.63;6.53;;;8.80;99.90;;;;;;4983162;28;20082;-84
2021/12/17 12:07:23;;;;;;;14.07;7.20;;;8.70;99.90;;;;;;4985321;28;20055;-85
2021/12/17 12:09:58;;;;;;;14.68;7.28;;;8.60;99.90;;;;;;4983738;28;20081;-84
2021/12/17 12:12:49;;;;;;;21.02;7.13;;;8.50;99.90;;;;;;4988493;28;20023;-83
2021/12/17 12:15:24;;;;;;;16.13;6.75;;;8.50;99.90;;;;;;4995213;28;20103;-83
2021/12/17 12:18:11;;;;;;;18.73;7.00;;;8.50;99.90;;;;;;4991296;28;20032;-85
2021/12/17 12:20:44;;;;;;;12.73;7.03;;;8.40;99.90;;;;;;4984720;28;20037;-86
2021/12/17 12:23:29;;;;;;;15.52;7.13;;;8.30;99.90;;;;;;4984660;28;20034;-85
2021/12/17 12:26:01;;;;;;;16.20;6.45;;;8.40;99.90;;;;;;4967717;28;20091;-84
2021/12/17 12:28:45;;;;;;;15.98;6.45;;;8.40;99.90;;;;;;4987507;28;20038;-84
2021/12/17 12:31:12;;;;;;;12.38;6.10;;;8.40;99.90;;;;;;4992243;28;20033;-85
2021/12/17 12:34:01;;;;;;;15.18;6.93;;;8.50;99.90;;;;;;4985851;28;20150;-85
2021/12/17 12:36:55;;;;;;;16.98;7.00;;;8.50;99.90;;;;;;4945048;28;20130;-84
2021/12/17 12:39:41;;;;;;;15.55;6.80;;;8.50;99.90;;;;;;4988392;28;20049;-86
2021/12/17 12:42:17;;;;;;;14.68;7.05;;;8.50;99.90;;;;;;4990957;28;20030;-85
2021/12/17 12:44:44;;;;;;;13.15;6.38;;;8.50;99.90;;;;;;4976809;28;20026;-86
2021/12/17 12:47:31;;;;;;;22.55;7.47;;;8.30;99.90;;;;;;4973456;28;20033;-85
2021/12/17 12:50:10;;;;;;;15.05;6.75;;;8.30;99.90;;;;;;4998656;28;20022;-83
2021/12/17 12:52:39;;;;;;;17.88;7.07;;;8.20;99.90;;;;;;5005663;28;20025;-87
2021/12/17 12:55:30;;;;;;;17.13;6.90;;;8.30;99.90;;;;;;5000486;28;20015;-87
2021/12/17 12:58:02;;;;;;;12.75;6.07;;;8.20;99.90;;;;;;5013615;28;20085;-85
2021/12/17 13:00:35;;;;;;;12.43;6.65;;;8.10;99.90;;;;;;5016621;28;20093;-86
2021/12/17 13:03:04;;;;;;;12.32;6.40;;;8.10;99.90;;;;;;5016471;28;20038;-86
2021/12/17 13:05:31;;;;;;;14.93;6.90;;;7.90;99.90;;;;;;5007113;28;20028;-87
2021/12/17 13:07:59;;;;;;;20.70;7.28;;;7.90;99.90;;;;;;4996757;28;20064;-87
2021/12/17 13:10:29;;;;;;;19.83;6.78;;;7.80;99.90;;;;;;4998181;28;20088;-86
2021/12/17 13:13:16;;;;;;;16.38;8.18;;;7.60;99.90;;;;;;4982636;28;20077;-88
2021/12/17 13:16:02;;;;;;;18.05;7.90;;;7.60;99.90;;;;;;4986729;28;20133;-87
2021/12/17 13:24:06;;;;;;;15.67;7.47;;;7.30;99.90;;;;;;4991363;28;20059;-86
2021/12/17 13:26:32;;;;;;;15.25;7.57;;;7.20;99.90;;;;;;4988810;28;20141;-87
2021/12/17 13:29:09;;;;;;;17.40;7.78;;;7.20;99.90;;;;;;5084762;23;20034;-86
2021/12/17 13:31:57;;;;;;;14.18;7.50;;;7.20;99.90;;;;;;5039418;28;20077;-89
2021/12/17 13:34:33;;;;;;;19.93;7.83;;;7.10;99.90;;;;;;5012403;28;20217;-87
2021/12/17 13:37:06;;;;;;;14.25;7.15;;;7.10;99.90;;;;;;5021314;28;20022;-86
2021/12/17 13:39:42;;;;;;;16.92;7.25;;;7.10;99.90;;;;;;5023486;28;20026;-85
2021/12/17 13:42:12;;;;;;;15.35;7.68;;;7.10;99.90;;;;;;5002870;28;20058;-86
2021/12/17 13:44:39;;;;;;;16.25;7.88;;;7.10;99.90;;;;;;5000834;28;20083;-86
2021/12/17 13:47:25;;;;;;;16.98;7.63;;;7.10;99.90;;;;;;5011853;28;20030;-86
2021/12/17 13:50:00;;;;;;;20.67;8.10;;;7.10;99.90;;;;;;5001001;28;20058;-86
2021/12/17 13:52:29;;;;;;;15.68;7.65;;;7.10;99.90;;;;;;5001101;28;20037;-84
2021/12/17 13:54:57;;;;;;;17.40;7.60;;;7.10;99.90;;;;;;5019883;28;20042;-86
2021/12/17 13:57:26;;;;;;;14.43;6.93;;;7.10;99.90;;;;;;5008033;28;20018;-85
2021/12/17 13:59:52;;;;;;;19.20;7.60;;;7.10;99.90;;;;;;5015369;28;20066;-85
2021/12/17 14:02:22;;;;;;;16.27;7.88;;;7.10;99.90;;;;;;5005922;28;20431;-86
2021/12/17 14:05:27;;;;;;;18.15;7.40;;;7.00;99.90;;;;;;5000507;28;20026;-85
2021/12/17 14:07:55;;;;;;;20.70;8.50;;;7.10;99.90;;;;;;5010630;28;20030;-86
2021/12/17 14:10:33;;;;;;;17.00;7.10;;;7.00;99.90;;;;;;5003391;28;20062;-85
2021/12/17 14:13:16;;;;;;;20.48;8.00;;;7.00;99.90;;;;;;5020300;28;20029;-86
2021/12/17 14:15:45;;;;;;;24.73;7.63;;;7.00;99.90;;;;;;5011315;28;20030;-86
2021/12/17 14:18:15;;;;;;;20.15;7.10;;;7.00;99.90;;;;;;4999965;28;20015;-87
2021/12/17 14:20:52;;;;;;;16.63;7.32;;;7.00;99.90;;;;;;4984845;28;20031;-87
2021/12/17 14:23:29;;;;;;;14.20;6.95;;;7.00;99.90;;;;;;5004916;28;20025;-86
2021/12/17 14:25:58;;;;;;;19.70;7.15;;;7.00;99.90;;;;;;5007830;28;20038;-85
2021/12/17 14:28:36;;;;;;;14.43;6.90;;;7.10;99.90;;;;;;4995467;28;20042;-86
2021/12/17 14:31:05;;;;;;;17.08;6.30;;;7.00;99.90;;;;;;4994463;28;20030;-86
2021/12/17 14:34:04;;;;;;;22.42;7.47;;;7.00;99.90;;;;;;4978479;28;20034;-87
2021/12/17 14:36:39;;;;;;;15.65;7.78;;;7.10;99.90;;;;;;4997945;28;20034;-86
2021/12/17 14:39:17;;;;;;;17.63;7.45;;;7.10;99.90;;;;;;4993211;28;20034;-87
2021/12/17 14:42:03;;;;;;;15.65;7.35;;;7.10;99.90;;;;;;5013685;28;20074;-86
2021/12/17 14:47:34;;;;;;;19.00;7.03;;;7.10;99.90;;;;;;5002940;28;19916;-87
2021/12/17 15:03:41;;;;;;;20.17;7.35;;;7.10;99.90;;;;;;4992565;28;20035;-87
2021/12/17 15:06:10;;;;;;;16.30;7.80;;;7.10;99.90;;;;;;4992197;28;20042;-87
2021/12/17 15:08:36;;;;;;;14.55;6.65;;;7.00;99.90;;;;;;4994251;28;20093;-87
2021/12/17 15:11:09;;;;;;;18.23;6.63;;;7.00;99.90;;;;;;4998805;28;20030;-86
2021/12/17 15:13:35;;;;;;;19.42;7.18;;;7.00;99.90;;;;;;5016577;28;20030;-87
2021/12/17 15:16:02;;;;;;;19.77;7.20;;;7.00;99.90;;;;;;5018051;28;20046;-85
2021/12/17 15:18:29;;;;;;;16.10;7.00;;;6.90;99.90;;;;;;5018278;28;20170;-88
2021/12/17 15:20:59;;;;;;;16.70;7.00;;;6.90;99.90;;;;;;5018317;28;20034;-87
2021/12/17 15:23:42;;;;;;;23.63;8.25;;;6.90;99.90;;;;;;5017370;28;20035;-85
2021/12/17 15:26:08;;;;;;;17.25;7.75;;;6.80;99.90;;;;;;5018618;28;20046;-87
2021/12/17 15:28:34;;;;;;;23.80;7.97;;;6.70;99.90;;;;;;5018491;28;20038;-87
2021/12/17 15:31:04;;;;;;;18.38;7.35;;;6.70;99.90;;;;;;5017623;28;20060;-87
2021/12/17 15:33:31;;;;;;;21.38;7.45;;;6.70;99.90;;;;;;4996158;28;20030;-87
2021/12/17 15:35:59;;;;;;;15.88;7.30;;;6.70;99.90;;;;;;5011573;28;20022;-82
2021/12/17 15:38:25;;;;;;;16.77;6.70;;;6.60;99.90;;;;;;5016914;28;20030;-83
2021/12/17 15:40:52;;;;;;;21.75;7.43;;;6.60;99.90;;;;;;4998992;28;20038;-87
2021/12/17 15:43:20;;;;;;;18.50;7.38;;;6.60;99.90;;;;;;5009434;28;20045;-86
2021/12/17 15:45:47;;;;;;;17.20;6.65;;;6.60;99.90;;;;;;5013209;28;20034;-83
2021/12/17 15:48:16;;;;;;;17.40;7.68;;;6.60;99.90;;;;;;5016114;28;20022;-83
2021/12/17 15:50:42;;;;;;;16.95;7.47;;;6.70;99.90;;;;;;5016088;28;20086;-81
2021/12/17 15:53:09;;;;;;;18.83;7.40;;;6.70;99.90;;;;;;5018329;28;20031;-83
2021/12/17 15:55:35;;;;;;;21.13;7.47;;;6.70;99.90;;;;;;5016680;28;20069;-84
2021/12/17 15:58:03;;;;;;;15.75;8.45;;;6.80;99.90;;;;;;5017359;28;20022;-82
2021/12/17 16:00:33;;;;;;;17.50;7.35;;;6.80;99.90;;;;;;5017630;28;20069;-83
2021/12/17 16:03:01;;;;;;;18.25;7.28;;;6.80;99.90;;;;;;5016655;28;20022;-83
2021/12/17 16:05:27;;;;;;;18.30;8.30;;;6.80;99.90;;;;;;5017745;28;20030;-83
2021/12/17 16:07:56;;;;;;;24.67;7.95;;;6.70;99.90;;;;;;5010187;28;20038;-81
2021/12/17 16:21:06;;;;;;;18.77;7.70;;;6.50;99.90;;;;;;4987713;28;20061;-86
2021/12/17 16:23:45;;;;;;;17.67;8.00;;;6.50;99.90;;;;;;4969767;28;20065;-85
2021/12/17 16:26:12;;;;;;;20.33;8.43;;;6.50;99.90;;;;;;4986970;28;20058;-87
2021/12/17 16:28:40;;;;;;;21.52;7.82;;;6.50;99.90;;;;;;4968524;28;20031;-87
2021/12/17 16:31:11;;;;;;;18.67;8.55;;;6.50;99.90;;;;;;4984706;28;20551;-89
2021/12/17 16:33:39;;;;;;;23.90;8.68;;;6.60;99.90;;;;;;4984506;28;20070;-86
2021/12/17 16:36:06;;;;;;;21.67;8.18;;;6.60;99.90;;;;;;4968752;28;20030;-87
2021/12/17 16:38:33;;;;;;;23.23;8.70;;;6.60;99.90;;;;;;5003642;28;20054;-87